Time;durP1;ratioP1;P1;durP2;ratioP2;P2;SDS_P1;SDS_P2;PMS_P1;PMS_P2;Temp;Humidity;BMP_temperature;BMP_pressure;BME280_temperature;BME280_humidity;BME280_pressure;Samples;Min_cycle;Max_cycle;Signal;HPM_P1;HPM_P2
2023/08/12 00:00:22;;;;;;;4.90;3.00;;;20.00;99.90;;;;;;5031337;28;20206;-68
2023/08/12 00:02:48;;;;;;;6.55;2.90;;;20.00;99.90;;;;;;5031407;28;20233;-67
2023/08/12 00:05:15;;;;;;;4.78;2.78;;;19.90;99.90;;;;;;5031291;28;20678;-68
2023/08/12 00:07:42;;;;;;;3.72;3.17;;;19.90;99.90;;;;;;5030921;28;20206;-68
2023/08/12 00:10:10;;;;;;;4.97;2.80;;;19.80;99.90;;;;;;5031331;28;20221;-67
2023/08/12 00:12:38;;;;;;;5.13;3.08;;;19.80;99.90;;;;;;5031394;28;20232;-68
2023/08/12 00:15:07;;;;;;;6.22;2.97;;;19.80;99.90;;;;;;5031375;28;20230;-67
2023/08/12 00:17:35;;;;;;;3.72;3.20;;;19.90;99.90;;;;;;5031103;28;20206;-68
2023/08/12 00:20:05;;;;;;;5.00;2.88;;;19.90;99.90;;;;;;5031030;28;20340;-67
2023/08/12 00:25:07;;;;;;;6.13;3.00;;;19.90;99.90;;;;;;5026009;28;20229;-60
2023/08/12 00:27:35;;;;;;;4.65;3.10;;;20.00;99.90;;;;;;5026761;28;20677;-60
2023/08/12 00:30:03;;;;;;;4.85;3.08;;;20.00;99.90;;;;;;5031140;28;20693;-59
2023/08/12 00:32:29;;;;;;;3.75;3.25;;;20.00;99.90;;;;;;5031131;28;20205;-59
2023/08/12 00:34:56;;;;;;;7.47;3.42;;;20.00;99.90;;;;;;5031037;28;20230;-59
2023/08/12 00:37:23;;;;;;;3.50;3.00;;;19.90;99.90;;;;;;5031053;28;20210;-59
2023/08/12 00:39:50;;;;;;;5.57;3.10;;;19.90;99.90;;;;;;5031232;28;20206;-59
2023/08/12 00:42:17;;;;;;;4.40;3.20;;;19.90;99.90;;;;;;5030894;28;20666;-60
2023/08/12 00:44:43;;;;;;;4.50;3.38;;;19.90;99.90;;;;;;5030975;28;20241;-58
2023/08/12 00:47:11;;;;;;;5.82;3.00;;;19.90;99.90;;;;;;5030776;28;20206;-59
2023/08/12 00:49:40;;;;;;;6.95;2.90;;;19.90;99.90;;;;;;5030929;28;20708;-60
2023/08/12 00:52:07;;;;;;;3.63;3.05;;;19.80;99.90;;;;;;5031189;28;20214;-59
2023/08/12 00:54:34;;;;;;;4.75;2.92;;;19.80;99.90;;;;;;5031071;28;20230;-60
2023/08/12 00:57:01;;;;;;;5.65;2.97;;;19.90;99.90;;;;;;5030666;28;20756;-58
2023/08/12 00:59:28;;;;;;;3.50;3.10;;;19.80;99.90;;;;;;5030932;28;20213;-60
2023/08/12 01:01:55;;;;;;;4.80;3.00;;;19.80;99.90;;;;;;5031095;28;20206;-60
2023/08/12 01:04:23;;;;;;;4.57;3.20;;;19.80;99.90;;;;;;5030833;28;20223;-58
2023/08/12 01:06:49;;;;;;;4.88;3.13;;;19.80;99.90;;;;;;5030792;28;20214;-58
2023/08/12 01:09:17;;;;;;;7.35;3.38;;;19.80;99.90;;;;;;5030892;28;20206;-59
2023/08/12 01:11:49;;;;;;;4.38;3.08;;;19.70;99.90;;;;;;5030922;28;20247;-59
2023/08/12 01:14:20;;;;;;;4.55;3.00;;;19.70;99.90;;;;;;5030559;28;20226;-59
2023/08/12 01:16:50;;;;;;;6.13;3.40;;;19.70;99.90;;;;;;5031048;28;20621;-59
2023/08/12 01:19:30;;;;;;;4.57;2.72;;;19.80;99.90;;;;;;5033696;28;20209;-59
2023/08/12 01:22:00;;;;;;;3.53;3.13;;;19.90;99.90;;;;;;5034566;28;20297;-58
2023/08/12 01:24:28;;;;;;;7.90;3.70;;;19.90;99.90;;;;;;5034007;28;20674;-59
2023/08/12 01:26:55;;;;;;;3.67;3.00;;;20.10;99.90;;;;;;5033850;28;20206;-59
2023/08/12 01:29:22;;;;;;;5.05;3.35;;;20.10;99.90;;;;;;5034091;28;20488;-60
2023/08/12 01:31:55;;;;;;;3.30;3.00;;;20.10;99.90;;;;;;5034293;28;20213;-60
2023/08/12 01:34:29;;;;;;;3.35;3.03;;;20.20;99.90;;;;;;5034172;28;20283;-61
2023/08/12 01:36:57;;;;;;;3.35;3.05;;;20.20;99.90;;;;;;5033617;28;20646;-60
2023/08/12 01:39:27;;;;;;;3.67;3.30;;;20.20;99.90;;;;;;5033785;28;20586;-59
2023/08/12 01:41:56;;;;;;;3.17;2.92;;;20.20;99.90;;;;;;5034160;28;20206;-59
2023/08/12 01:44:23;;;;;;;4.65;3.00;;;20.20;99.90;;;;;;5033935;28;20226;-59
2023/08/12 01:46:50;;;;;;;5.85;3.67;;;20.20;99.90;;;;;;5033653;28;20214;-59
2023/08/12 01:49:17;;;;;;;4.80;3.00;;;20.20;99.90;;;;;;5033722;28;20212;-59
2023/08/12 01:51:44;;;;;;;5.00;3.50;;;20.20;99.90;;;;;;5033624;28;20257;-60
2023/08/12 01:54:11;;;;;;;4.43;3.30;;;20.20;99.90;;;;;;5033776;28;20226;-59
2023/08/12 01:56:37;;;;;;;5.38;3.35;;;20.10;99.90;;;;;;5033553;28;20206;-60
2023/08/12 01:59:05;;;;;;;5.60;3.13;;;20.10;99.90;;;;;;5033985;28;20213;-60
2023/08/12 02:01:32;;;;;;;3.60;3.30;;;20.10;99.90;;;;;;5033547;28;20237;-59
2023/08/12 02:03:59;;;;;;;3.65;3.30;;;20.10;99.90;;;;;;5033299;28;20752;-60
2023/08/12 02:06:25;;;;;;;3.72;3.20;;;20.10;99.90;;;;;;5033032;28;20289;-59
2023/08/12 02:08:52;;;;;;;4.60;3.15;;;20.10;99.90;;;;;;5033599;28;20210;-60
2023/08/12 02:11:19;;;;;;;5.25;3.45;;;20.10;99.90;;;;;;5033493;28;20210;-60
2023/08/12 02:13:45;;;;;;;4.40;3.28;;;20.10;99.90;;;;;;5033646;28;20257;-59
2023/08/12 02:16:13;;;;;;;4.43;3.25;;;20.10;99.90;;;;;;5033494;28;20206;-59
2023/08/12 02:18:40;;;;;;;3.05;2.72;;;20.10;99.90;;;;;;5033251;28;20229;-60
2023/08/12 02:21:07;;;;;;;3.53;3.15;;;20.10;99.90;;;;;;5033167;28;20584;-61
2023/08/12 02:23:33;;;;;;;7.20;3.30;;;20.10;99.90;;;;;;5032970;28;20258;-60
2023/08/12 02:26:00;;;;;;;3.70;3.30;;;20.10;99.90;;;;;;5032919;28;20297;-61
2023/08/12 02:28:27;;;;;;;3.30;3.00;;;20.20;99.90;;;;;;5033197;28;20622;-59
2023/08/12 02:30:53;;;;;;;4.70;3.30;;;20.20;99.90;;;;;;5032939;28;20212;-57
2023/08/12 02:33:21;;;;;;;5.32;3.40;;;20.30;99.90;;;;;;5032813;28;20230;-59
2023/08/12 02:35:48;;;;;;;4.00;3.38;;;20.40;99.90;;;;;;5032731;28;20235;-58
2023/08/12 02:38:15;;;;;;;3.72;3.17;;;20.30;99.90;;;;;;5033033;28;20206;-60
2023/08/12 02:40:42;;;;;;;3.70;3.40;;;20.30;99.90;;;;;;5032955;28;20214;-59
2023/08/12 02:43:10;;;;;;;4.18;3.03;;;20.30;99.90;;;;;;5032725;28;20226;-59
2023/08/12 02:45:37;;;;;;;5.20;3.40;;;20.30;99.90;;;;;;5032789;28;20230;-59
2023/08/12 02:48:04;;;;;;;4.93;3.55;;;20.30;99.90;;;;;;5032256;28;20219;-59
2023/08/12 02:50:32;;;;;;;3.92;3.30;;;20.20;99.90;;;;;;5032732;28;20284;-59
2023/08/12 02:52:58;;;;;;;3.85;2.97;;;20.20;99.90;;;;;;5032631;28;20222;-59
2023/08/12 02:55:25;;;;;;;4.18;3.33;;;20.20;99.90;;;;;;5032385;28;20732;-59
2023/08/12 02:57:52;;;;;;;3.38;2.88;;;20.30;99.90;;;;;;5032171;28;20202;-60
2023/08/12 03:00:19;;;;;;;6.03;3.20;;;20.30;99.90;;;;;;5032284;28;20294;-59
2023/08/12 03:02:46;;;;;;;5.20;3.38;;;20.30;99.90;;;;;;5032289;28;20257;-60
2023/08/12 03:05:12;;;;;;;3.60;3.30;;;20.30;99.90;;;;;;5032306;28;20213;-59
2023/08/12 03:07:40;;;;;;;4.20;3.28;;;20.30;99.90;;;;;;5031944;28;20636;-59
2023/08/12 03:10:08;;;;;;;4.57;3.08;;;20.40;99.90;;;;;;5032525;28;20210;-60
2023/08/12 03:12:36;;;;;;;3.70;3.40;;;20.50;99.90;;;;;;5032340;28;20240;-59
2023/08/12 03:15:04;;;;;;;7.82;3.17;;;20.50;99.90;;;;;;5032044;28;20222;-59
2023/08/12 03:17:31;;;;;;;6.35;3.35;;;20.60;99.90;;;;;;5032220;28;20213;-59
2023/08/12 03:19:59;;;;;;;6.18;3.50;;;20.70;99.90;;;;;;5032286;28;20206;-59
2023/08/12 03:22:25;;;;;;;3.53;3.10;;;20.70;99.90;;;;;;5032014;28;20206;-60
2023/08/12 03:24:53;;;;;;;5.88;3.22;;;20.80;99.90;;;;;;5032000;28;20238;-59
2023/08/12 03:27:20;;;;;;;5.88;2.95;;;20.80;99.90;;;;;;5031616;28;20637;-60
2023/08/12 03:29:47;;;;;;;3.45;3.15;;;20.70;99.90;;;;;;5031781;28;20213;-60
2023/08/12 03:32:14;;;;;;;3.65;2.90;;;20.80;99.90;;;;;;5031929;28;20210;-59
2023/08/12 03:34:41;;;;;;;5.57;3.30;;;20.90;99.90;;;;;;5031559;28;20743;-60
2023/08/12 03:37:07;;;;;;;5.28;3.17;;;21.00;99.90;;;;;;5031610;28;20202;-59
2023/08/12 03:39:34;;;;;;;4.40;3.13;;;21.00;99.90;;;;;;5031607;28;20221;-60
2023/08/12 03:42:02;;;;;;;4.10;2.88;;;21.10;99.90;;;;;;5031649;28;20210;-60
2023/08/12 03:44:29;;;;;;;4.47;3.65;;;21.20;99.90;;;;;;5031840;28;20233;-59
2023/08/12 03:46:55;;;;;;;3.80;3.30;;;21.20;99.90;;;;;;5031374;28;20214;-60
2023/08/12 03:49:22;;;;;;;3.55;3.22;;;21.20;99.90;;;;;;5031520;28;20674;-59
2023/08/12 03:51:49;;;;;;;5.15;3.38;;;21.20;99.90;;;;;;5031615;28;20214;-60
2023/08/12 03:54:15;;;;;;;5.43;3.45;;;21.20;99.90;;;;;;5031293;28;20233;-60
2023/08/12 03:56:42;;;;;;;3.80;3.28;;;21.30;99.90;;;;;;5031079;28;20206;-60
2023/08/12 03:59:10;;;;;;;3.80;3.28;;;21.40;99.90;;;;;;5031413;28;20210;-60
2023/08/12 04:01:38;;;;;;;3.72;3.20;;;21.40;99.90;;;;;;5031377;28;20206;-60
2023/08/12 04:04:05;;;;;;;4.07;3.00;;;21.40;99.90;;;;;;5031481;28;20230;-60
2023/08/12 04:06:32;;;;;;;4.82;3.60;;;21.40;99.90;;;;;;5031230;28;20211;-60
2023/08/12 04:08:58;;;;;;;3.67;3.30;;;21.50;99.90;;;;;;5031553;28;20202;-62
2023/08/12 04:11:25;;;;;;;3.47;3.05;;;21.50;99.90;;;;;;5031675;28;20222;-59
2023/08/12 04:13:52;;;;;;;6.93;3.30;;;21.50;99.90;;;;;;5031446;28;20230;-59
2023/08/12 04:16:20;;;;;;;3.47;3.08;;;21.50;99.90;;;;;;5030736;28;20226;-59
2023/08/12 04:18:47;;;;;;;3.75;3.40;;;21.50;99.90;;;;;;5031158;28;20224;-58
2023/08/12 04:21:13;;;;;;;3.72;3.42;;;21.50;99.90;;;;;;5031215;28;20202;-59
2023/08/12 04:23:40;;;;;;;5.50;3.15;;;21.50;99.90;;;;;;5030929;28;20233;-59
2023/08/12 04:26:07;;;;;;;3.88;2.92;;;21.50;99.90;;;;;;5030823;28;20202;-59
2023/08/12 04:28:33;;;;;;;6.10;3.60;;;21.50;99.90;;;;;;5031203;28;20601;-59
2023/08/12 04:31:00;;;;;;;5.50;3.47;;;21.50;99.90;;;;;;5031144;28;20206;-60
2023/08/12 04:33:28;;;;;;;5.30;3.78;;;21.40;99.90;;;;;;5031072;28;20288;-57
2023/08/12 04:35:55;;;;;;;5.93;3.60;;;21.30;99.90;;;;;;5030748;28;20613;-58
2023/08/12 04:38:21;;;;;;;4.15;3.33;;;21.30;99.90;;;;;;5030904;28;20670;-60
2023/08/12 04:40:48;;;;;;;7.85;3.83;;;21.30;99.90;;;;;;5031006;28;20610;-60
2023/08/12 04:43:15;;;;;;;5.32;3.50;;;21.30;99.90;;;;;;5031030;28;20261;-60
2023/08/12 04:45:45;;;;;;;5.72;3.65;;;21.40;99.90;;;;;;5030877;28;20228;-59
2023/08/12 04:48:11;;;;;;;5.70;3.72;;;21.50;99.90;;;;;;5030939;28;20615;-60
2023/08/12 04:50:40;;;;;;;5.60;3.40;;;21.50;99.90;;;;;;5031051;28;20210;-60
2023/08/12 04:53:07;;;;;;;5.13;3.35;;;21.50;99.90;;;;;;5032269;28;20710;-59
2023/08/12 04:55:35;;;;;;;7.10;3.75;;;21.60;99.90;;;;;;5034967;28;20236;-62
2023/08/12 04:58:02;;;;;;;6.07;3.67;;;21.60;99.90;;;;;;5034755;28;20210;-59
2023/08/12 05:00:29;;;;;;;6.28;3.80;;;21.70;99.90;;;;;;5034791;28;20214;-60
2023/08/12 05:02:56;;;;;;;6.35;3.83;;;21.60;99.90;;;;;;5034860;28;20226;-60
2023/08/12 05:05:23;;;;;;;4.18;3.70;;;21.60;99.90;;;;;;5034460;28;20202;-60
2023/08/12 05:07:51;;;;;;;4.05;3.53;;;21.70;99.90;;;;;;5034445;28;20206;-61
2023/08/12 05:10:18;;;;;;;5.53;3.53;;;21.70;99.90;;;;;;5034609;28;20303;-61
2023/08/12 05:12:46;;;;;;;11.40;8.75;;;21.80;99.90;;;;;;5034297;28;20279;-59
2023/08/12 05:15:12;;;;;;;8.93;4.28;;;21.80;99.90;;;;;;5034374;28;20226;-60
2023/08/12 05:17:39;;;;;;;5.35;3.88;;;21.80;99.90;;;;;;5034021;28;20348;-60
2023/08/12 05:20:07;;;;;;;5.43;3.42;;;21.80;99.90;;;;;;5034131;28;20210;-59
2023/08/12 05:22:34;;;;;;;4.88;3.75;;;21.80;99.90;;;;;;5034280;28;20206;-59
2023/08/12 05:25:02;;;;;;;13.63;3.88;;;21.80;99.90;;;;;;5034173;28;20221;-60
2023/08/12 05:27:29;;;;;;;4.57;4.18;;;21.80;99.90;;;;;;5033724;28;20670;-59
2023/08/12 05:29:55;;;;;;;6.80;3.60;;;21.90;99.90;;;;;;5034158;28;20218;-59
2023/08/12 05:32:22;;;;;;;4.32;3.90;;;21.90;99.90;;;;;;5034114;28;20206;-59
2023/08/12 05:34:51;;;;;;;5.60;4.35;;;22.00;99.90;;;;;;5033741;28;20230;-60
2023/08/12 05:37:17;;;;;;;5.40;3.95;;;22.10;99.90;;;;;;5033829;28;20304;-59
2023/08/12 05:39:44;;;;;;;5.10;3.50;;;22.10;99.90;;;;;;5034183;28;20241;-60
2023/08/12 05:42:12;;;;;;;5.78;3.72;;;22.20;99.90;;;;;;5034116;28;20210;-60
2023/08/12 05:44:41;;;;;;;4.95;3.60;;;22.20;99.90;;;;;;5033742;28;20234;-60
2023/08/12 05:47:08;;;;;;;5.05;4.00;;;22.20;99.90;;;;;;5033247;28;20693;-60
2023/08/12 05:49:34;;;;;;;10.73;5.40;;;22.00;99.90;;;;;;5033754;28;20214;-60
2023/08/12 05:52:01;;;;;;;4.88;3.58;;;21.90;99.90;;;;;;5033954;28;20210;-59
2023/08/12 05:54:28;;;;;;;5.07;3.80;;;22.00;99.90;;;;;;5033914;28;20720;-59
2023/08/12 05:56:54;;;;;;;4.70;3.65;;;22.20;99.90;;;;;;5033378;28;20295;-59
2023/08/12 05:59:22;;;;;;;6.68;3.75;;;22.40;99.90;;;;;;5033902;28;20217;-59
2023/08/12 06:01:49;;;;;;;5.82;3.67;;;22.50;99.90;;;;;;5033407;28;20740;-58
2023/08/12 06:04:16;;;;;;;4.18;3.40;;;22.70;99.90;;;;;;5033634;28;20245;-59
2023/08/12 06:06:43;;;;;;;3.85;3.28;;;22.80;99.90;;;;;;5033226;28;20235;-60
2023/08/12 06:09:09;;;;;;;6.13;3.60;;;23.00;99.90;;;;;;5033499;28;20256;-60
2023/08/12 06:11:36;;;;;;;7.03;3.72;;;23.00;99.90;;;;;;5033469;28;20221;-59
2023/08/12 06:14:03;;;;;;;3.65;3.30;;;22.80;99.90;;;;;;5033228;28;20222;-59
2023/08/12 06:16:31;;;;;;;8.35;3.65;;;22.70;99.90;;;;;;5032844;28;20234;-59
2023/08/12 06:18:57;;;;;;;4.63;3.42;;;22.70;99.90;;;;;;5033391;28;20260;-60
2023/08/12 06:21:24;;;;;;;3.38;3.08;;;22.70;99.90;;;;;;5033035;28;20217;-58
2023/08/12 06:23:51;;;;;;;6.70;3.40;;;22.80;99.90;;;;;;5065543;22;20240;-66
2023/08/12 06:26:17;;;;;;;4.35;3.70;;;22.90;99.90;;;;;;5064456;28;20380;-67
2023/08/12 06:28:44;;;;;;;4.47;4.07;;;23.00;99.90;;;;;;5073184;28;20209;-66
2023/08/12 06:31:11;;;;;;;4.55;3.45;;;23.20;99.90;;;;;;5073294;28;20209;-67
2023/08/12 06:33:39;;;;;;;4.53;3.40;;;23.30;99.90;;;;;;5072929;28;20225;-66
2023/08/12 06:36:07;;;;;;;3.72;3.30;;;23.40;99.90;;;;;;5073592;28;20263;-66
2023/08/12 06:38:33;;;;;;;5.10;3.53;;;23.40;99.90;;;;;;5073841;28;20631;-65
2023/08/12 06:41:00;;;;;;;4.93;3.60;;;23.40;99.90;;;;;;5074035;28;20204;-65
2023/08/12 06:43:27;;;;;;;4.68;3.53;;;23.40;99.90;;;;;;5073544;28;20256;-66
2023/08/12 06:45:54;;;;;;;4.28;3.25;;;23.40;99.90;;;;;;5073488;28;20629;-66
2023/08/12 06:48:20;;;;;;;4.97;3.80;;;23.40;99.90;;;;;;5073083;28;20204;-67
2023/08/12 06:50:54;;;;;;;5.95;3.58;;;23.30;99.90;;;;;;5073093;28;20209;-67
2023/08/12 06:53:20;;;;;;;9.48;3.63;;;23.30;99.90;;;;;;5072481;28;20239;-66
2023/08/12 06:55:47;;;;;;;4.53;3.28;;;23.20;99.90;;;;;;5071793;28;20221;-66
2023/08/12 06:58:14;;;;;;;5.25;3.30;;;23.20;99.90;;;;;;5072349;28;20224;-67
2023/08/12 07:00:42;;;;;;;3.85;3.20;;;23.20;99.90;;;;;;5072507;28;20228;-67
2023/08/12 07:03:08;;;;;;;5.18;3.78;;;23.60;99.90;;;;;;5072479;28;20311;-68
2023/08/12 07:05:35;;;;;;;6.05;5.28;;;24.10;99.90;;;;;;5072210;28;20205;-66
2023/08/12 07:08:04;;;;;;;7.68;5.20;;;24.90;99.90;;;;;;5071992;28;20240;-67
2023/08/12 07:10:30;;;;;;;6.18;4.28;;;25.70;99.90;;;;;;5072222;28;20649;-67
2023/08/12 07:12:57;;;;;;;3.88;3.05;;;26.50;99.90;;;;;;5072454;28;20209;-67
2023/08/12 07:15:24;;;;;;;3.85;3.05;;;27.60;99.90;;;;;;5071717;28;20715;-66
2023/08/12 07:17:50;;;;;;;3.60;3.13;;;28.20;99.90;;;;;;5071987;28;20564;-68
2023/08/12 07:20:17;;;;;;;4.15;3.00;;;28.70;99.90;;;;;;5072312;28;20558;-67
2023/08/12 07:22:44;;;;;;;3.47;2.80;;;29.60;99.90;;;;;;5071927;28;20205;-68
2023/08/12 07:25:12;;;;;;;3.88;2.75;;;30.70;99.90;;;;;;5071717;28;20739;-67
2023/08/12 07:27:39;;;;;;;4.13;2.78;;;31.00;99.90;;;;;;5071994;28;20213;-67
2023/08/12 07:30:07;;;;;;;3.60;2.90;;;30.80;99.90;;;;;;5071880;28;20212;-67
2023/08/12 07:32:34;;;;;;;4.95;2.78;;;30.50;99.90;;;;;;5071756;28;20213;-67
2023/08/12 07:35:01;;;;;;;5.05;2.88;;;30.90;99.90;;;;;;5071700;28;20235;-67
2023/08/12 07:37:27;;;;;;;3.33;2.85;;;31.10;99.90;;;;;;5071523;28;20225;-66
2023/08/12 07:39:54;;;;;;;4.63;3.20;;;30.80;99.90;;;;;;5071874;28;20208;-67
2023/08/12 07:42:22;;;;;;;3.97;2.70;;;30.60;99.90;;;;;;5071775;28;20672;-67
2023/08/12 07:44:49;;;;;;;6.47;3.00;;;31.40;99.90;;;;;;5071596;28;20221;-67
2023/08/12 07:47:16;;;;;;;5.53;3.05;;;32.00;99.90;;;;;;5071764;28;20196;-67
2023/08/12 07:49:43;;;;;;;3.45;3.10;;;32.30;99.90;;;;;;5071581;28;20244;-67
2023/08/12 07:52:09;;;;;;;3.35;2.92;;;32.60;99.90;;;;;;5071621;28;20204;-68
2023/08/12 07:54:36;;;;;;;3.22;2.80;;;32.80;99.90;;;;;;5071557;28;20331;-67
2023/08/12 07:57:04;;;;;;;8.98;2.72;;;33.50;99.90;;;;;;5071298;28;20607;-68
2023/08/12 07:59:32;;;;;;;2.88;2.60;;;33.90;99.90;;;;;;5071709;28;20201;-68
2023/08/12 08:01:58;;;;;;;4.13;2.90;;;35.10;99.90;;;;;;5071633;28;20257;-67
2023/08/12 08:04:25;;;;;;;3.83;2.72;;;36.60;97.70;;;;;;5071429;28;20217;-67
2023/08/12 08:06:52;;;;;;;3.38;2.70;;;38.20;92.80;;;;;;5071235;28;20201;-67
2023/08/12 08:09:19;;;;;;;4.95;2.50;;;39.20;87.30;;;;;;5071564;28;20220;-67
2023/08/12 08:11:45;;;;;;;5.18;2.70;;;39.90;81.90;;;;;;5071497;28;20204;-68
2023/08/12 08:14:12;;;;;;;2.92;2.72;;;40.10;76.90;;;;;;5071760;28;20229;-67
2023/08/12 08:16:41;;;;;;;3.42;2.45;;;39.10;78.40;;;;;;5071306;28;20243;-67
2023/08/12 08:19:09;;;;;;;3.88;2.85;;;38.10;79.90;;;;;;5071530;28;20220;-67
2023/08/12 08:21:36;;;;;;;3.83;2.60;;;37.90;81.40;;;;;;5071890;28;20241;-67
2023/08/12 08:24:02;;;;;;;3.58;2.50;;;38.50;78.10;;;;;;5071443;28;20240;-67
2023/08/12 08:26:29;;;;;;;2.90;2.42;;;39.10;76.80;;;;;;5071271;28;20208;-67
2023/08/12 08:28:56;;;;;;;4.50;2.65;;;39.20;74.90;;;;;;5076060;28;20212;-68
2023/08/12 08:31:23;;;;;;;3.92;2.80;;;39.20;74.70;;;;;;5075720;28;20691;-67
2023/08/12 08:33:51;;;;;;;4.22;2.70;;;38.50;76.10;;;;;;5075242;28;20228;-66
2023/08/12 08:36:18;;;;;;;4.10;2.78;;;37.50;79.20;;;;;;5076280;28;20726;-68
2023/08/12 08:38:44;;;;;;;4.15;2.67;;;36.90;81.00;;;;;;5077339;28;20204;-68
2023/08/12 08:41:11;;;;;;;3.83;3.03;;;36.20;82.80;;;;;;5076982;28;20216;-68
2023/08/12 08:43:43;;;;;;;4.30;2.92;;;35.50;85.40;;;;;;5075652;28;20251;-67
2023/08/12 08:46:11;;;;;;;4.75;3.10;;;34.70;87.80;;;;;;5075073;28;20642;-67
2023/08/12 08:48:39;;;;;;;5.00;3.20;;;34.20;90.10;;;;;;5075501;28;20212;-67
2023/08/12 08:51:09;;;;;;;3.35;3.05;;;33.90;90.90;;;;;;5075443;28;20205;-67
2023/08/12 08:53:38;;;;;;;2.97;2.70;;;33.60;91.60;;;;;;5075476;28;20228;-69
2023/08/12 08:56:07;;;;;;;3.42;2.67;;;33.40;92.00;;;;;;5074983;28;20209;-68
2023/08/12 08:58:34;;;;;;;4.32;3.30;;;33.30;92.30;;;;;;5074856;28;20372;-68
2023/08/12 09:01:00;;;;;;;3.55;2.97;;;33.20;92.70;;;;;;5074488;28;20269;-68
2023/08/12 09:03:27;;;;;;;3.55;3.00;;;33.30;92.60;;;;;;5074851;28;20253;-68
2023/08/12 09:05:56;;;;;;;8.07;3.58;;;33.30;92.10;;;;;;5074914;28;20220;-67
2023/08/12 09:08:26;;;;;;;4.85;3.17;;;33.50;92.60;;;;;;5074771;28;20254;-67
2023/08/12 09:10:54;;;;;;;5.35;2.97;;;33.50;92.40;;;;;;5074812;28;20209;-67
2023/08/12 09:13:20;;;;;;;6.47;5.65;;;33.50;91.00;;;;;;5074383;28;20209;-66
2023/08/12 09:15:47;;;;;;;4.13;3.17;;;33.50;89.90;;;;;;5074589;28;20212;-67
2023/08/12 09:18:14;;;;;;;4.55;3.75;;;33.30;90.10;;;;;;5074177;28;20695;-67
2023/08/12 09:20:43;;;;;;;3.83;3.05;;;33.10;90.40;;;;;;5074428;28;20216;-67
2023/08/12 09:23:10;;;;;;;3.40;2.90;;;32.90;90.70;;;;;;5074168;28;20205;-67
2023/08/12 09:25:43;;;;;;;5.70;2.90;;;32.70;90.70;;;;;;5074443;28;20211;-68
2023/08/12 09:28:10;;;;;;;5.22;3.15;;;32.60;91.00;;;;;;5074540;28;20205;-67
2023/08/12 09:30:38;;;;;;;10.73;3.30;;;32.50;91.40;;;;;;5074129;28;20676;-67
2023/08/12 09:33:07;;;;;;;5.22;2.92;;;32.50;91.50;;;;;;5074032;28;20215;-66
2023/08/12 09:35:35;;;;;;;4.95;3.17;;;32.70;91.50;;;;;;5073905;28;20700;-68
2023/08/12 09:38:06;;;;;;;4.40;3.10;;;32.90;91.30;;;;;;5073195;28;20272;-67
2023/08/12 09:40:35;;;;;;;3.28;2.80;;;33.00;90.90;;;;;;5074039;28;20233;-67
2023/08/12 09:43:03;;;;;;;4.10;2.90;;;33.40;90.50;;;;;;5074092;28;20204;-67
2023/08/12 09:45:31;;;;;;;4.47;2.90;;;33.70;90.30;;;;;;5074333;28;20215;-67
2023/08/12 09:47:58;;;;;;;4.75;3.10;;;33.60;90.30;;;;;;5073869;28;20197;-68
2023/08/12 09:50:26;;;;;;;4.93;3.13;;;33.50;89.20;;;;;;5074371;28;20212;-67
2023/08/12 09:52:54;;;;;;;2.88;2.53;;;33.30;90.00;;;;;;5074088;28;20204;-67
2023/08/12 09:55:23;;;;;;;4.38;2.80;;;33.10;90.10;;;;;;5073935;28;20712;-68
2023/08/12 09:57:53;;;;;;;6.90;3.03;;;33.00;89.60;;;;;;5073361;28;20708;-66
2023/08/12 10:00:23;;;;;;;2.85;2.63;;;33.00;90.10;;;;;;5073916;28;20205;-66
2023/08/12 10:02:52;;;;;;;5.22;2.95;;;33.00;90.10;;;;;;5073654;28;20209;-67
2023/08/12 10:05:22;;;;;;;5.50;3.03;;;33.10;90.10;;;;;;5073559;28;20264;-67
2023/08/12 10:07:49;;;;;;;5.90;2.78;;;33.10;90.10;;;;;;5073910;28;20209;-67
2023/08/12 10:10:17;;;;;;;5.03;2.80;;;33.10;90.40;;;;;;5073952;28;20204;-67
2023/08/12 10:12:44;;;;;;;4.70;2.80;;;33.00;90.50;;;;;;5073650;28;20272;-66
2023/08/12 10:15:11;;;;;;;3.75;2.83;;;32.90;90.80;;;;;;5073367;28;20290;-68
2023/08/12 10:17:41;;;;;;;5.38;2.95;;;33.10;90.50;;;;;;5073349;28;20259;-68
2023/08/12 10:20:13;;;;;;;4.18;2.63;;;33.50;90.40;;;;;;5074233;28;20240;-68
2023/08/12 10:22:40;;;;;;;4.18;2.40;;;33.90;89.30;;;;;;5073839;28;20695;-68
2023/08/12 10:25:09;;;;;;;5.10;2.97;;;34.30;87.50;;;;;;5073180;28;20236;-67
2023/08/12 10:27:36;;;;;;;3.13;2.55;;;34.40;86.20;;;;;;5073199;28;20680;-69
2023/08/12 10:30:04;;;;;;;2.80;2.60;;;34.10;87.10;;;;;;5061672;28;20237;-65
2023/08/12 10:32:33;;;;;;;2.78;2.50;;;33.90;87.60;;;;;;5052135;28;20206;-68
2023/08/12 10:35:02;;;;;;;3.35;2.60;;;33.80;89.40;;;;;;5052116;28;20295;-66
2023/08/12 10:37:33;;;;;;;6.38;2.72;;;33.70;92.10;;;;;;5052026;28;20226;-66
2023/08/12 10:40:00;;;;;;;4.90;2.40;;;33.80;91.80;;;;;;5051926;28;20205;-66
2023/08/12 10:42:43;;;;;;;3.05;2.55;;;33.90;90.40;;;;;;5051977;28;20221;-66
2023/08/12 10:45:11;;;;;;;4.20;2.38;;;34.00;89.70;;;;;;5051722;28;20252;-66
2023/08/12 10:47:43;;;;;;;3.90;2.42;;;34.20;88.20;;;;;;5051547;28;20212;-65
2023/08/12 10:50:19;;;;;;;3.60;2.60;;;34.30;88.10;;;;;;5051186;28;20264;-68
2023/08/12 10:52:46;;;;;;;3.88;2.35;;;34.50;87.70;;;;;;5051850;28;20216;-65
2023/08/12 10:55:24;;;;;;;4.47;2.50;;;34.70;85.50;;;;;;5051704;28;20229;-66
2023/08/12 10:57:52;;;;;;;2.67;2.40;;;35.00;84.30;;;;;;5051569;28;20231;-65
2023/08/12 11:00:21;;;;;;;2.70;2.25;;;35.10;83.20;;;;;;5051712;28;20202;-65
2023/08/12 11:02:50;;;;;;;5.10;2.38;;;35.20;82.20;;;;;;5051526;28;20659;-65
2023/08/12 11:05:19;;;;;;;2.65;2.22;;;35.30;81.60;;;;;;5051258;28;20225;-65
2023/08/12 11:07:47;;;;;;;4.60;2.50;;;35.20;81.50;;;;;;5050478;28;20654;-66
2023/08/12 11:10:17;;;;;;;3.15;2.50;;;35.20;81.70;;;;;;5051340;28;20240;-64
2023/08/12 11:12:53;;;;;;;3.80;2.40;;;35.10;82.10;;;;;;5051342;28;20206;-66
2023/08/12 11:15:30;;;;;;;5.20;2.50;;;35.10;81.80;;;;;;5051146;28;20229;-67
2023/08/12 11:17:56;;;;;;;4.05;2.50;;;34.90;81.80;;;;;;5050735;28;20237;-68
2023/08/12 11:20:25;;;;;;;3.13;2.50;;;35.10;82.30;;;;;;5051097;28;20255;-67
2023/08/12 11:22:53;;;;;;;3.05;2.30;;;35.30;82.50;;;;;;5051108;28;20213;-67
2023/08/12 11:25:19;;;;;;;4.60;2.95;;;35.30;83.00;;;;;;5050861;28;20233;-70
2023/08/12 11:27:47;;;;;;;2.78;2.55;;;35.30;83.40;;;;;;5051359;28;20209;-66
2023/08/12 11:30:16;;;;;;;4.03;2.75;;;35.40;83.50;;;;;;5051576;28;20209;-66
2023/08/12 11:32:44;;;;;;;2.80;2.50;;;35.50;83.80;;;;;;5051671;28;20580;-65
2023/08/12 11:35:12;;;;;;;4.72;2.55;;;35.40;81.70;;;;;;5051428;28;20230;-65
2023/08/12 11:37:41;;;;;;;5.88;2.60;;;35.30;81.50;;;;;;5051083;28;20233;-66
2023/08/12 11:40:10;;;;;;;3.92;2.22;;;35.30;80.70;;;;;;5051217;28;20208;-64
2023/08/12 11:42:37;;;;;;;2.85;2.20;;;35.20;81.60;;;;;;5051350;28;20213;-66
2023/08/12 11:45:04;;;;;;;3.28;2.25;;;35.10;80.00;;;;;;5051249;28;20225;-66
2023/08/12 11:47:31;;;;;;;2.75;2.40;;;34.80;80.90;;;;;;5051080;28;20213;-65
2023/08/12 11:49:58;;;;;;;4.13;2.55;;;34.70;81.60;;;;;;5051190;28;20700;-66
2023/08/12 11:52:25;;;;;;;3.15;2.28;;;34.80;81.10;;;;;;5051571;28;20205;-66
2023/08/12 11:54:54;;;;;;;5.68;2.90;;;35.20;79.00;;;;;;5051438;28;20232;-66
2023/08/12 11:57:23;;;;;;;3.83;2.88;;;35.70;77.80;;;;;;5051115;28;20233;-65
2023/08/12 11:59:50;;;;;;;4.95;2.40;;;36.00;77.20;;;;;;5051623;28;20209;-66
2023/08/12 12:02:16;;;;;;;4.18;2.30;;;36.30;76.20;;;;;;5051073;28;20210;-65
2023/08/12 12:04:44;;;;;;;2.83;2.53;;;36.40;75.10;;;;;;5051496;28;20229;-66
2023/08/12 12:07:21;;;;;;;4.68;2.40;;;36.30;74.00;;;;;;5050932;28;20660;-65
2023/08/12 12:09:48;;;;;;;4.28;2.20;;;36.20;73.90;;;;;;5051027;28;20751;-66
2023/08/12 12:12:17;;;;;;;6.70;2.47;;;36.00;74.20;;;;;;5051550;28;20589;-65
2023/08/12 12:14:44;;;;;;;3.85;2.53;;;35.80;75.00;;;;;;5050769;28;20225;-65
2023/08/12 12:17:12;;;;;;;7.50;3.35;;;35.40;76.70;;;;;;5050640;28;20205;-66
2023/08/12 12:19:41;;;;;;;9.27;4.63;;;34.40;86.60;;;;;;5051163;28;20205;-64
2023/08/12 12:22:08;;;;;;;8.10;3.47;;;33.20;90.80;;;;;;5050855;28;20688;-65
2023/08/12 12:24:46;;;;;;;8.32;3.90;;;31.60;94.00;;;;;;5084959;22;20622;-58
2023/08/12 12:27:12;;;;;;;10.52;4.00;;;30.00;99.90;;;;;;5063871;28;20212;-58
2023/08/12 12:29:41;;;;;;;8.52;3.53;;;28.80;99.90;;;;;;5071437;28;20209;-60
2023/08/12 12:32:08;;;;;;;5.60;2.83;;;27.60;99.90;;;;;;5071380;28;20232;-59
2023/08/12 12:34:34;;;;;;;7.43;4.97;;;26.20;99.90;;;;;;5071230;28;20228;-59
2023/08/12 12:37:02;;;;;;;9.25;3.17;;;24.70;99.90;;;;;;5070972;28;20307;-60
2023/08/12 12:39:28;;;;;;;7.47;2.67;;;23.70;99.90;;;;;;5071105;28;20682;-58
2023/08/12 12:41:55;;;;;;;3.88;2.60;;;23.10;99.90;;;;;;5071462;28;20208;-59
2023/08/12 12:44:22;;;;;;;5.07;2.33;;;22.80;99.90;;;;;;5071467;28;20225;-58
2023/08/12 12:46:50;;;;;;;6.72;2.90;;;22.60;99.90;;;;;;5070848;28;20201;-59
2023/08/12 12:49:16;;;;;;;5.60;2.67;;;22.40;99.90;;;;;;5071003;28;20249;-60